SPIT62 EGXC-EGXC

Flight info

Callsign SPIT62
Flight time 1h 2m
Altitude 5000
Route OPR
Aircraft SPIT/L-VGD/N

Departure

Time 2026-05-09 10:17
Airport RAF Coningsby (EGXC)

Arrival

Time 2026-05-09 11:20
Airport RAF Coningsby (EGXC)
Time Latitude Longitude Altitude Speed Heading
2026-05-09 10:08 53.09564 -0.18147 25 ft 0 kts 143°
2026-05-09 10:12 53.09537 -0.18143 26 ft 7 kts 216°
2026-05-09 10:12 53.09480 -0.18202 26 ft 13 kts 205°
2026-05-09 10:12 53.09389 -0.18273 25 ft 15 kts 202°
2026-05-09 10:13 53.09294 -0.18315 24 ft 14 kts 167°
2026-05-09 10:13 53.09246 -0.18204 23 ft 12 kts 114°
2026-05-09 10:13 53.09215 -0.18078 25 ft 12 kts 114°
2026-05-09 10:13 53.09181 -0.17953 24 ft 12 kts 115°
2026-05-09 10:14 53.09145 -0.17830 25 ft 12 kts 119°
2026-05-09 10:14 53.09088 -0.17790 23 ft 12 kts 218°
2026-05-09 10:14 53.09044 -0.17928 24 ft 6 kts 250°
2026-05-09 10:14 53.09060 -0.17935 24 ft 8 kts 95°
2026-05-09 10:15 53.09064 -0.17886 22 ft 0 kts 76°
2026-05-09 10:16 53.09066 -0.17870 24 ft 8 kts 75°
2026-05-09 10:16 53.09132 -0.17530 24 ft 63 kts 72°
2026-05-09 10:17 53.09324 -0.16525 101 ft 110 kts 77°
2026-05-09 10:17 53.09575 -0.15187 464 ft 131 kts 73°
2026-05-09 10:17 53.10025 -0.13881 1031 ft 129 kts 64°
2026-05-09 10:17 53.10498 -0.12597 1591 ft 135 kts 65°
2026-05-09 10:18 53.11005 -0.11104 1856 ft 163 kts 67°
2026-05-09 10:18 53.11487 -0.09305 2243 ft 170 kts 81°
2026-05-09 10:18 53.11620 -0.07598 2582 ft 178 kts 73°
2026-05-09 10:18 53.12676 -0.06394 2617 ft 204 kts 14°
2026-05-09 10:19 53.14103 -0.06144 2843 ft 207 kts
2026-05-09 10:19 53.15534 -0.05889 3179 ft 205 kts
2026-05-09 10:19 53.16964 -0.05805 3461 ft 206 kts
2026-05-09 10:19 53.17450 -0.05783 3576 ft 206 kts
2026-05-09 10:20 53.18888 -0.05696 3800 ft 213 kts
2026-05-09 10:20 53.20400 -0.05671 3840 ft 223 kts
2026-05-09 10:20 53.21983 -0.05722 3876 ft 229 kts 359°
2026-05-09 10:20 53.23578 -0.05828 4010 ft 230 kts 356°
2026-05-09 10:21 53.25174 -0.05993 4114 ft 230 kts 355°
2026-05-09 10:21 53.26777 -0.06214 4198 ft 232 kts 354°
2026-05-09 10:21 53.28375 -0.06517 4334 ft 231 kts 351°
2026-05-09 10:21 53.29961 -0.06907 4441 ft 232 kts 349°
2026-05-09 10:22 53.31562 -0.07391 4417 ft 236 kts 351°
2026-05-09 10:22 53.33175 -0.07692 4474 ft 235 kts 352°
2026-05-09 10:22 53.34809 -0.08103 4457 ft 238 kts 348°
2026-05-09 10:22 53.36451 -0.08663 4367 ft 243 kts 346°
2026-05-09 10:23 53.38096 -0.09334 4335 ft 243 kts 343°
2026-05-09 10:23 53.39726 -0.10110 4289 ft 244 kts 341°
2026-05-09 10:23 53.41338 -0.11016 4223 ft 245 kts 338°
2026-05-09 10:23 53.42944 -0.12011 4123 ft 247 kts 340°
2026-05-09 10:24 53.44588 -0.12879 4061 ft 248 kts 339°
2026-05-09 10:24 53.46211 -0.13795 4140 ft 243 kts 339°
2026-05-09 10:24 53.47802 -0.14759 4120 ft 243 kts 336°
2026-05-09 10:24 53.49346 -0.15938 4111 ft 243 kts 327°
2026-05-09 10:25 53.50394 -0.18069 4185 ft 238 kts 288°
2026-05-09 10:25 53.50600 -0.20831 3982 ft 245 kts 268°
2026-05-09 10:25 53.50630 -0.23715 3846 ft 247 kts 267°
2026-05-09 10:25 53.50536 -0.26581 3831 ft 244 kts 261°
2026-05-09 10:26 53.50304 -0.29377 3870 ft 241 kts 257°
2026-05-09 10:26 53.49965 -0.32106 3905 ft 239 kts 252°
2026-05-09 10:26 53.49566 -0.34793 4020 ft 233 kts 254°
2026-05-09 10:26 53.49222 -0.37483 3952 ft 238 kts 255°
2026-05-09 10:27 53.48931 -0.40219 3962 ft 238 kts 258°
2026-05-09 10:27 53.48692 -0.42926 3889 ft 232 kts 257°
2026-05-09 10:27 53.48419 -0.45597 3761 ft 232 kts 257°
2026-05-09 10:27 53.48109 -0.48231 3744 ft 228 kts 253°
2026-05-09 10:28 53.47722 -0.50783 3638 ft 229 kts 251°
2026-05-09 10:28 53.47314 -0.53220 3650 ft 224 kts 249°
2026-05-09 10:28 53.46827 -0.55698 3644 ft 222 kts 248°
2026-05-09 10:28 53.46285 -0.58134 3559 ft 224 kts 244°
2026-05-09 10:29 53.45685 -0.60538 3529 ft 223 kts 243°
2026-05-09 10:29 53.45067 -0.62910 3516 ft 221 kts 242°
2026-05-09 10:29 53.44398 -0.65220 3518 ft 220 kts 241°
2026-05-09 10:29 53.43776 -0.67526 3495 ft 221 kts 242°
2026-05-09 10:30 53.43112 -0.69871 3390 ft 223 kts 240°
2026-05-09 10:30 53.42378 -0.72153 3379 ft 221 kts 237°
2026-05-09 10:30 53.41606 -0.74370 3351 ft 220 kts 235°
2026-05-09 10:30 53.41080 -0.76690 3478 ft 216 kts 269°
2026-05-09 10:31 53.41771 -0.78862 3522 ft 220 kts 318°
2026-05-09 10:31 53.43196 -0.79614 3624 ft 217 kts
2026-05-09 10:31 53.44574 -0.78740 3628 ft 214 kts 40°
2026-05-09 10:31 53.45138 -0.76551 3556 ft 210 kts 96°
2026-05-09 10:32 53.44348 -0.74659 3548 ft 205 kts 151°
2026-05-09 10:32 53.42959 -0.74096 3508 ft 205 kts 167°
2026-05-09 10:32 53.41573 -0.73600 3530 ft 203 kts 164°
2026-05-09 10:32 53.40189 -0.73125 3490 ft 204 kts 171°
2026-05-09 10:33 53.38748 -0.73094 3330 ft 210 kts 184°
2026-05-09 10:33 53.37427 -0.73820 3256 ft 180 kts 208°
2026-05-09 10:33 53.36449 -0.74838 3190 ft 158 kts 208°
2026-05-09 10:33 53.35537 -0.75807 3156 ft 154 kts 210°
2026-05-09 10:34 53.34647 -0.76767 3168 ft 151 kts 212°
2026-05-09 10:34 53.32970 -0.78989 3004 ft 156 kts 219°
2026-05-09 10:34 53.32168 -0.80204 2993 ft 155 kts 221°
2026-05-09 10:35 53.31386 -0.81428 3016 ft 152 kts 219°
2026-05-09 10:35 53.30609 -0.82636 3002 ft 153 kts 219°
2026-05-09 10:35 53.29779 -0.83759 2972 ft 154 kts 216°
2026-05-09 10:35 53.28934 -0.84857 2930 ft 154 kts 214°
2026-05-09 10:36 53.28066 -0.85947 2845 ft 157 kts 215°
2026-05-09 10:36 53.27189 -0.87030 2784 ft 158 kts 213°
2026-05-09 10:36 53.26327 -0.88188 2702 ft 161 kts 220°
2026-05-09 10:36 53.25539 -0.89479 2676 ft 159 kts 222°
2026-05-09 10:37 53.24752 -0.90787 2651 ft 159 kts 222°
2026-05-09 10:37 53.23970 -0.92090 2647 ft 158 kts 223°
2026-05-09 10:37 53.23274 -0.93563 2493 ft 169 kts 239°
2026-05-09 10:37 53.23048 -0.95526 2272 ft 182 kts 272°
2026-05-09 10:38 53.23172 -0.97664 2076 ft 187 kts 275°
2026-05-09 10:38 53.23333 -0.99858 1893 ft 192 kts 275°
2026-05-09 10:38 53.23369 -1.02057 1889 ft 183 kts 246°
2026-05-09 10:38 53.22635 -1.03711 1851 ft 179 kts 213°
2026-05-09 10:39 53.21722 -1.05054 1864 ft 181 kts 252°
2026-05-09 10:39 53.22310 -1.06619 1826 ft 182 kts 356°
2026-05-09 10:39 53.23448 -1.05849 1814 ft 177 kts 44°
2026-05-09 10:39 53.24040 -1.04099 1780 ft 176 kts 81°
2026-05-09 10:40 53.23965 -1.02776 1721 ft 176 kts 120°
2026-05-09 10:40 53.22927 -1.02331 1756 ft 176 kts 214°
2026-05-09 10:40 53.23153 -1.04602 1674 ft 188 kts 344°
2026-05-09 10:40 53.24117 -1.03599 1661 ft 179 kts 78°
2026-05-09 10:41 53.23869 -1.02326 1509 ft 180 kts 143°
2026-05-09 10:41 53.22689 -1.01886 1522 ft 181 kts 182°
2026-05-09 10:41 53.21426 -1.02119 1562 ft 181 kts 188°
2026-05-09 10:41 53.20209 -1.02478 1546 ft 169 kts 189°
2026-05-09 10:42 53.19096 -1.02854 1439 ft 159 kts 189°
2026-05-09 10:42 53.18035 -1.03243 1382 ft 154 kts 190°
2026-05-09 10:42 53.17012 -1.03599 1350 ft 150 kts 190°
2026-05-09 10:42 53.16004 -1.03947 1329 ft 148 kts 189°
2026-05-09 10:43 53.14997 -1.04286 1271 ft 149 kts 192°
2026-05-09 10:43 53.13995 -1.04711 1224 ft 148 kts 191°
2026-05-09 10:43 53.13007 -1.05060 1254 ft 141 kts 186°
2026-05-09 10:43 53.12025 -1.05384 1180 ft 148 kts 189°
2026-05-09 10:44 53.11003 -1.05838 1149 ft 154 kts 194°
2026-05-09 10:44 53.09980 -1.06364 1189 ft 154 kts 195°
2026-05-09 10:44 53.08950 -1.06862 1248 ft 154 kts 193°
2026-05-09 10:44 53.07901 -1.07097 1328 ft 152 kts 180°
2026-05-09 10:45 53.06842 -1.07164 1327 ft 153 kts 180°
2026-05-09 10:46 53.03234 -1.04502 1445 ft 150 kts 129°
2026-05-09 10:46 53.02611 -1.03122 1484 ft 150 kts 126°
2026-05-09 10:46 53.01870 -1.01940 1465 ft 151 kts 152°
2026-05-09 10:46 53.01087 -1.00838 1478 ft 150 kts 115°
2026-05-09 10:47 53.01219 -0.99187 1427 ft 158 kts 59°
2026-05-09 10:47 53.02025 -0.97881 1375 ft 163 kts 44°
2026-05-09 10:47 53.02937 -0.96762 1410 ft 165 kts 25°
2026-05-09 10:47 53.04046 -0.97045 1315 ft 173 kts 320°
2026-05-09 10:48 53.04758 -0.98623 1332 ft 170 kts 300°
2026-05-09 10:48 53.05326 -1.00271 1591 ft 151 kts 274°
2026-05-09 10:48 53.04678 -1.00959 1653 ft 154 kts 137°
2026-05-09 10:48 53.04187 -0.99420 1603 ft 145 kts 127°
2026-05-09 10:49 53.03726 -0.98056 1585 ft 143 kts 81°
2026-05-09 10:49 53.04498 -0.97071 1487 ft 153 kts 21°
2026-05-09 10:49 53.05522 -0.96522 1446 ft 154 kts 20°
2026-05-09 10:49 53.06564 -0.96015 1411 ft 157 kts 17°
2026-05-09 10:50 53.07621 -0.95602 1431 ft 154 kts 17°
2026-05-09 10:50 53.08614 -0.94970 1404 ft 152 kts 33°
2026-05-09 10:50 53.09414 -0.93868 1445 ft 150 kts 49°
2026-05-09 10:50 53.10175 -0.92641 1405 ft 151 kts 45°
2026-05-09 10:51 53.10926 -0.91435 1394 ft 151 kts 47°
2026-05-09 10:51 53.11675 -0.90204 1366 ft 152 kts 48°
2026-05-09 10:51 53.12433 -0.88969 1336 ft 154 kts 46°
2026-05-09 10:51 53.13312 -0.88043 1451 ft 152 kts
2026-05-09 10:52 53.14328 -0.88628 1358 ft 161 kts 324°
2026-05-09 10:52 53.15191 -0.89827 1350 ft 160 kts 319°
2026-05-09 10:52 53.16040 -0.91035 1364 ft 159 kts 308°
2026-05-09 10:52 53.16113 -0.92663 1448 ft 145 kts 237°
2026-05-09 10:53 53.16214 -0.94202 1473 ft 155 kts 317°
2026-05-09 10:53 53.17121 -0.94151 1485 ft 145 kts 66°
2026-05-09 10:53 53.16648 -0.92968 1084 ft 158 kts 167°
2026-05-09 10:53 53.15868 -0.92223 1556 ft 123 kts 88°
2026-05-09 10:54 53.16672 -0.91595 1152 ft 165 kts 353°
2026-05-09 10:54 53.17818 -0.91773 1078 ft 164 kts 12°
2026-05-09 10:54 53.18913 -0.91378 1097 ft 162 kts 355°
2026-05-09 10:54 53.19682 -0.92482 1181 ft 156 kts 275°
2026-05-09 10:55 53.19504 -0.94158 1139 ft 148 kts 221°
2026-05-09 10:55 53.19089 -0.95619 1358 ft 144 kts 270°
2026-05-09 10:55 53.19681 -0.96868 1675 ft 151 kts 347°
2026-05-09 10:55 53.20458 -0.96061 1753 ft 141 kts 89°
2026-05-09 10:56 53.19989 -0.94664 1514 ft 145 kts 145°
2026-05-09 10:56 53.19112 -0.94751 1485 ft 148 kts 250°
2026-05-09 10:56 53.19622 -0.96123 1547 ft 153 kts 315°
2026-05-09 10:56 53.20489 -0.97155 1441 ft 155 kts 341°
2026-05-09 10:57 53.21528 -0.97101 1385 ft 149 kts 26°
2026-05-09 10:57 53.22434 -0.96227 1315 ft 151 kts 34°
2026-05-09 10:57 53.23296 -0.95244 1284 ft 148 kts 50°
2026-05-09 10:57 53.23685 -0.93738 1218 ft 142 kts 101°
2026-05-09 10:58 53.23315 -0.92238 1173 ft 142 kts 117°
2026-05-09 10:58 53.22909 -0.90733 1182 ft 142 kts 117°
2026-05-09 10:58 53.22495 -0.89218 1138 ft 143 kts 117°
2026-05-09 10:58 53.21956 -0.87861 1150 ft 138 kts 134°
2026-05-09 10:59 53.21279 -0.86701 1223 ft 146 kts 136°
2026-05-09 10:59 53.20571 -0.85516 1498 ft 140 kts 134°
2026-05-09 10:59 53.19903 -0.84360 1693 ft 140 kts 136°
2026-05-09 10:59 53.19196 -0.83244 1862 ft 140 kts 138°
2026-05-09 11:00 53.18483 -0.82150 2039 ft 139 kts 137°
2026-05-09 11:00 53.17776 -0.81053 2191 ft 138 kts 138°
2026-05-09 11:00 53.17046 -0.79976 2486 ft 144 kts 139°
2026-05-09 11:00 53.16273 -0.78834 2580 ft 151 kts 139°
2026-05-09 11:01 53.15478 -0.77655 2629 ft 154 kts 139°
2026-05-09 11:01 53.14681 -0.76465 2688 ft 154 kts 139°
2026-05-09 11:01 53.13851 -0.75313 2704 ft 156 kts 140°
2026-05-09 11:01 53.13084 -0.74044 2763 ft 155 kts 127°
2026-05-09 11:02 53.12575 -0.72451 2777 ft 157 kts 119°
2026-05-09 11:02 53.12241 -0.70739 2800 ft 159 kts 99°
2026-05-09 11:02 53.12150 -0.68881 2805 ft 161 kts 97°
2026-05-09 11:02 53.12093 -0.67021 2824 ft 160 kts 95°
2026-05-09 11:03 53.12048 -0.65165 2796 ft 161 kts 96°
2026-05-09 11:03 53.11974 -0.63291 2760 ft 163 kts 97°
2026-05-09 11:03 53.11919 -0.61407 2775 ft 162 kts 95°
2026-05-09 11:03 53.11867 -0.59526 2736 ft 164 kts 97°
2026-05-09 11:04 53.11776 -0.57641 2746 ft 163 kts 98°
2026-05-09 11:04 53.11689 -0.55755 2733 ft 164 kts 97°
2026-05-09 11:04 53.11614 -0.53865 2750 ft 164 kts 96°
2026-05-09 11:04 53.11563 -0.51972 2742 ft 165 kts 94°
2026-05-09 11:05 53.11561 -0.50062 2786 ft 164 kts 92°
2026-05-09 11:05 53.11584 -0.48157 2772 ft 166 kts 90°
2026-05-09 11:05 53.11627 -0.46249 2786 ft 164 kts 91°
2026-05-09 11:05 53.11671 -0.44356 2770 ft 165 kts 92°
2026-05-09 11:06 53.11629 -0.42485 2808 ft 163 kts 96°
2026-05-09 11:06 53.11600 -0.40574 2731 ft 167 kts 94°
2026-05-09 11:06 53.11585 -0.38635 2682 ft 168 kts 92°
2026-05-09 11:06 53.11629 -0.36697 2679 ft 167 kts 91°
2026-05-09 11:07 53.11727 -0.34779 2653 ft 171 kts 78°
2026-05-09 11:07 53.12239 -0.32974 2568 ft 177 kts 60°
2026-05-09 11:07 53.12937 -0.31216 2315 ft 186 kts 59°
2026-05-09 11:07 53.13671 -0.29433 2241 ft 186 kts 60°
2026-05-09 11:08 53.14400 -0.27617 2096 ft 191 kts 58°
2026-05-09 11:08 53.15149 -0.25811 2079 ft 190 kts 57°
2026-05-09 11:08 53.15921 -0.24024 2031 ft 190 kts 57°
2026-05-09 11:08 53.16716 -0.22265 2096 ft 190 kts 54°
2026-05-09 11:09 53.17579 -0.20643 2375 ft 180 kts 52°
2026-05-09 11:09 53.18424 -0.19069 2447 ft 181 kts 51°
2026-05-09 11:09 53.19473 -0.17905 2360 ft 192 kts 12°
2026-05-09 11:09 53.20723 -0.18582 2199 ft 201 kts 311°
2026-05-09 11:10 53.21029 -0.20702 2107 ft 192 kts 253°
2026-05-09 11:10 53.20529 -0.22733 2027 ft 192 kts 243°
2026-05-09 11:10 53.19983 -0.24751 2061 ft 190 kts 239°
2026-05-09 11:10 53.19389 -0.26726 2046 ft 191 kts 236°
2026-05-09 11:11 53.18728 -0.28615 2095 ft 187 kts 232°
2026-05-09 11:11 53.18006 -0.30420 2110 ft 185 kts 224°
2026-05-09 11:11 53.16869 -0.31104 2089 ft 178 kts 168°
2026-05-09 11:11 53.15878 -0.29990 2001 ft 180 kts 119°
2026-05-09 11:12 53.15769 -0.27952 1958 ft 185 kts 74°
2026-05-09 11:12 53.16216 -0.25923 1946 ft 187 kts 70°
2026-05-09 11:12 53.16717 -0.23940 2011 ft 185 kts 66°
2026-05-09 11:12 53.17279 -0.21993 2035 ft 187 kts 68°
2026-05-09 11:13 53.17729 -0.19954 2118 ft 186 kts 71°
2026-05-09 11:13 53.18219 -0.17975 2212 ft 185 kts 66°
2026-05-09 11:13 53.18987 -0.16270 2189 ft 192 kts 34°
2026-05-09 11:13 53.20283 -0.15946 2159 ft 196 kts 342°
2026-05-09 11:14 53.21223 -0.17534 1952 ft 201 kts 282°
2026-05-09 11:14 53.20939 -0.19678 1963 ft 191 kts 225°
2026-05-09 11:14 53.20042 -0.21276 2018 ft 186 kts 219°
2026-05-09 11:14 53.19068 -0.22672 2081 ft 182 kts 210°
2026-05-09 11:15 53.17866 -0.23264 1874 ft 174 kts 178°
2026-05-09 11:15 53.16701 -0.22979 1534 ft 176 kts 158°
2026-05-09 11:15 53.15503 -0.22198 1159 ft 191 kts 155°
2026-05-09 11:15 53.14264 -0.21329 875 ft 198 kts 152°
2026-05-09 11:16 53.12968 -0.20458 682 ft 205 kts 155°
2026-05-09 11:16 53.11631 -0.19594 689 ft 206 kts 153°
2026-05-09 11:16 53.10314 -0.18614 652 ft 208 kts 150°
2026-05-09 11:16 53.09219 -0.17348 774 ft 159 kts 111°
2026-05-09 11:17 53.09233 -0.15856 829 ft 126 kts 72°
2026-05-09 11:17 53.09566 -0.14405 1014 ft 140 kts 59°
2026-05-09 11:17 53.10393 -0.13853 938 ft 136 kts 342°
2026-05-09 11:17 53.10904 -0.15046 869 ft 132 kts 270°
2026-05-09 11:18 53.10756 -0.16534 738 ft 131 kts 249°
2026-05-09 11:18 53.10473 -0.17965 793 ft 129 kts 245°
2026-05-09 11:18 53.10180 -0.19371 767 ft 128 kts 247°
2026-05-09 11:18 53.09625 -0.20116 756 ft 99 kts 174°
2026-05-09 11:19 53.09060 -0.19660 481 ft 90 kts 120°
2026-05-09 11:19 53.08932 -0.18676 184 ft 87 kts 79°
2026-05-09 11:19 53.09088 -0.17787 24 ft 71 kts 71°
2026-05-09 11:19 53.09217 -0.17117 26 ft 53 kts 73°
2026-05-09 11:20 53.09309 -0.16644 28 ft 33 kts 71°
2026-05-09 11:20 53.09371 -0.16338 28 ft 23 kts 71°
2026-05-09 11:20 53.09412 -0.16202 30 ft 8 kts
2026-05-09 11:20 53.09472 -0.16229 27 ft 11 kts 342°
2026-05-09 11:21 53.09549 -0.16273 27 ft 11 kts 338°
2026-05-09 11:21 53.09546 -0.16366 28 ft 15 kts 249°
2026-05-09 11:21 53.09504 -0.16574 28 ft 21 kts 254°
2026-05-09 11:21 53.09457 -0.16809 28 ft 20 kts 252°
2026-05-09 11:22 53.09415 -0.17025 28 ft 20 kts 250°
2026-05-09 11:22 53.09367 -0.17260 25 ft 21 kts 251°
2026-05-09 11:22 53.09323 -0.17480 25 ft 19 kts 250°
2026-05-09 11:22 53.09285 -0.17677 24 ft 18 kts 250°
2026-05-09 11:23 53.09248 -0.17863 24 ft 18 kts 250°
2026-05-09 11:23 53.09213 -0.18033 23 ft 9 kts 269°
2026-05-09 11:23 53.09252 -0.18195 23 ft 18 kts 296°
2026-05-09 11:23 53.09305 -0.18325 25 ft 10 kts
2026-05-09 11:24 53.09369 -0.18281 25 ft 11 kts 24°
2026-05-09 11:24 53.09446 -0.18226 26 ft 13 kts 23°
2026-05-09 11:24 53.09523 -0.18171 26 ft 9 kts 18°
2026-05-09 11:24 53.09563 -0.18155 26 ft 0 kts 36°
2026-05-09 11:25 53.09564 -0.18152 26 ft 0 kts 63°
2026-05-09 11:25 53.09564 -0.18151 26 ft 1 kts 70°
2026-05-09 11:25 53.09565 -0.18146 26 ft 0 kts 97°
2026-05-09 11:25 53.09565 -0.18145 26 ft 0 kts 101°